OIBA  Abumusa Island  Airport

Iran

Add Bookmark
ICAO OIBA
IATA AEU
Type Airport
Status Operational
Latitude
25° 52' 32" N
25.875700
Longitude
55° 1' 58" E
55.033001
Local (DST + 5) UTC (GMT + 4)
Apr 2, 2015 04:37 Apr 2, 2015 00:07
Sunrise-Sunset Local UTC
Begin Civil Twilight 06:15 01:45
Sunrise 06:38 02:08
Sunset 07:08 14:38
End Civil Twilight 07:31 15:01
VFR
VFR
MVFR
MVFR
IFR
VFR
LIFR
VFR
Unknown
Unavailable

Current Weather

METAR Observed IFR
OIBA 011500Z 33008KT 4000 BR SKC 26/24 Q1002 Wed, Apr 1, 2015 @ 15:00 UTC
(9 Hours, 7 Minutes ago)
Instrument Flight Rules
Wind Visibility Clouds Conditions
330° at 8 knots (15 kph) 4000 meters
  • Clear skies
  • Mist
Temperatures Readings Precipitation
Current Temp 26°C (79°F)
Dewpoint 24°C (75°F)
Humidity 89%
Altimeter 29.59"Hg
Sea Level Pressure 1002mb
Field Elevation 22.97'
None Recorded

Additional weather within a 92.6km radius of OIBA

Map ICAO Location
OIBS 49.4km W (274°)
OIBL 75.7km N (344°)
OMDB 76.9km S (154°)
OMSJ 77.8km S (141°)
VFR
VFR
MVFR
MVFR
IFR
VFR
LIFR
VFR
Unknown
Unavailable
-
-

CheckWX.com is intended as a tool to help pilots better visualize weather data. It is not intended as a substitute for an official weather briefing obtained from a Flight Service Station. CheckWX.com does not meet the FAA requirements for an official pre-flight weather briefing. Therefore, it's important that pilots still call and obtain an official FSS pre-flight weather briefing.